Terminal Aerodrome Forecast
Issued by NWS Pocatello, ID

Home | Current Version | Previous Version | Text Only | Print | Product List | Glossary On
Versions: 1 2 3 4 5 6 7 8 9 10 11 12 13 14
518
FTUS45 KPIH 210939 AAA
TAFIDA
TAF AMD
KIDA 210939Z 2110/2206 21011KT P6SM VCSH OVC009
     FM211800 21010KT P6SM VCSH SCT010 BKN015 OVC035
     FM212000 21008KT P6SM VCSH OVC035=

USA.gov is the U.S. government's official web portal to all federal, state and local government web resources and services.